createdAt,value
2019-02-11T00:00:41.972Z,23
2019-02-11T00:01:44.153Z,23
2019-02-11T00:02:46.319Z,23
2019-02-11T00:03:48.742Z,23
2019-02-11T00:04:51.172Z,23
2019-02-11T00:05:53.594Z,23
2019-02-11T00:06:56.015Z,23
2019-02-11T00:07:58.439Z,23
2019-02-11T00:09:00.867Z,23
2019-02-11T00:10:03.292Z,23
2019-02-11T00:11:05.169Z,23
2019-02-11T00:12:07.330Z,23
2019-02-11T00:13:11.889Z,23
2019-02-11T00:14:14.026Z,23
2019-02-11T00:15:16.174Z,23
2019-02-11T00:16:18.606Z,23
2019-02-11T00:17:21.562Z,23
2019-02-11T00:18:24.636Z,23
2019-02-11T00:19:27.079Z,23
2019-02-11T00:20:29.504Z,23
2019-02-11T00:21:31.393Z,23
2019-02-11T00:22:33.820Z,23
2019-02-11T00:23:35.972Z,23
2019-02-11T00:24:38.403Z,23
2019-02-11T00:25:40.561Z,23
2019-02-11T00:26:42.709Z,23
2019-02-11T00:27:45.135Z,23
2019-02-11T00:28:47.300Z,23
2019-02-11T00:29:49.457Z,23
2019-02-11T00:30:51.871Z,23
2019-02-11T00:31:54.315Z,23
2019-02-11T00:32:56.931Z,23
2019-02-11T00:33:59.594Z,23
2019-02-11T00:35:01.757Z,23
2019-02-11T00:36:03.633Z,23
2019-02-11T00:37:06.057Z,23
2019-02-11T00:38:08.491Z,23
2019-02-11T00:39:10.663Z,23
2019-02-11T00:40:12.808Z,23
2019-02-11T00:41:15.251Z,23.1
2019-02-11T00:42:17.668Z,23
2019-02-11T00:43:20.476Z,23.1
2019-02-11T00:44:22.634Z,23.1
2019-02-11T00:45:24.790Z,23.1
2019-02-11T00:46:27.218Z,23.1
2019-02-11T00:47:29.375Z,23.1
2019-02-11T00:48:31.517Z,23.1
2019-02-11T00:49:33.933Z,23.1
2019-02-11T00:50:36.353Z,23.1
2019-02-11T00:51:38.508Z,23.1
2019-02-11T00:52:40.933Z,23.1
2019-02-11T00:53:43.363Z,23.1
2019-02-11T00:54:45.512Z,23.1
2019-02-11T00:55:47.936Z,23.1
2019-02-11T00:56:50.363Z,23.1
2019-02-11T00:57:52.223Z,23.1
2019-02-11T00:58:54.091Z,23.1
2019-02-11T00:59:56.520Z,23.1
2019-02-11T01:00:58.982Z,23.1
2019-02-11T01:02:01.127Z,23.2
2019-02-11T01:03:03.559Z,23.2
2019-02-11T01:04:05.153Z,23.2
2019-02-11T01:05:07.043Z,23.2
2019-02-11T01:06:09.476Z,23.2
2019-02-11T01:07:11.636Z,23.2
2019-02-11T01:08:13.793Z,23.2
2019-02-11T01:09:15.932Z,23.2
2019-02-11T01:10:17.852Z,23.2
2019-02-11T01:11:19.724Z,23.2
2019-02-11T01:12:22.158Z,23.2
2019-02-11T01:14:29.549Z,23.2
2019-02-11T01:15:31.422Z,23.2
2019-02-11T01:16:33.855Z,23.2
2019-02-11T01:17:36.277Z,23.2
2019-02-11T01:18:41.372Z,23.2
2019-02-11T01:19:43.933Z,23.3
2019-02-11T01:20:46.097Z,23.3
2019-02-11T01:21:47.973Z,23.3
2019-02-11T01:22:50.400Z,23.3
2019-02-11T01:23:52.832Z,23.3
2019-02-11T01:24:55.253Z,23.3
2019-02-11T01:25:57.414Z,23.4
2019-02-11T01:26:59.553Z,23.4
2019-02-11T01:28:01.999Z,23.4
2019-02-11T01:29:03.876Z,23.4
2019-02-11T01:30:06.035Z,23.4
2019-02-11T01:31:08.461Z,23.4
2019-02-11T01:32:10.339Z,23.5
2019-02-11T01:33:12.769Z,23.5
2019-02-11T01:34:15.211Z,23.5
2019-02-11T01:35:17.635Z,23.5
2019-02-11T01:36:20.060Z,23.5
2019-02-11T01:37:22.202Z,23.6
2019-02-11T01:38:24.633Z,23.6
2019-02-11T01:39:26.789Z,23.6
2019-02-11T01:40:28.643Z,23.6
2019-02-11T01:41:30.529Z,23.6
2019-02-11T01:42:32.943Z,23.6
2019-02-11T01:43:37.202Z,23.6
2019-02-11T01:44:39.351Z,23.7
2019-02-11T01:45:41.559Z,23.7
2019-02-11T01:46:43.987Z,23.7
2019-02-11T01:47:46.408Z,23.7
2019-02-11T01:48:48.844Z,23.7
2019-02-11T01:49:51.273Z,23.7
2019-02-11T01:50:53.411Z,23.7
2019-02-11T01:51:55.296Z,23.7
2019-02-11T01:52:57.723Z,23.7
2019-02-11T01:53:59.349Z,23.7
2019-02-11T01:55:01.470Z,23.8
2019-02-11T01:56:03.605Z,23.8
2019-02-11T01:57:05.819Z,23.8
2019-02-11T01:58:08.240Z,23.8
2019-02-11T01:59:10.668Z,23.8
2019-02-11T02:00:12.820Z,23.8
2019-02-11T02:01:15.243Z,23.8
2019-02-11T02:02:17.394Z,23.8
2019-02-11T02:03:19.248Z,23.8
2019-02-11T02:04:21.414Z,23.8
2019-02-11T02:05:23.858Z,23.8
2019-02-11T02:06:25.723Z,23.8
2019-02-11T02:07:28.154Z,23.8
2019-02-11T02:08:30.600Z,23.8
2019-02-11T02:09:33.031Z,23.8
2019-02-11T02:10:35.183Z,23.8
2019-02-11T02:11:37.607Z,23.8
2019-02-11T02:12:39.473Z,23.8
2019-02-11T02:14:46.877Z,23.8
2019-02-11T02:15:49.025Z,23.8
2019-02-11T02:16:50.917Z,23.8
2019-02-11T02:17:53.132Z,23.8
2019-02-11T02:18:54.994Z,23.9
2019-02-11T02:19:57.171Z,23.9
2019-02-11T02:20:59.519Z,23.9
2019-02-11T02:22:01.682Z,23.9
2019-02-11T02:23:03.573Z,23.9
2019-02-11T02:24:05.723Z,23.9
2019-02-11T02:25:07.897Z,23.9
2019-02-11T02:26:10.044Z,23.9
2019-02-11T02:27:12.463Z,23.9
2019-02-11T02:28:14.901Z,23.9
2019-02-11T02:29:16.752Z,23.9
2019-02-11T02:30:19.181Z,23.9
2019-02-11T02:31:21.617Z,23.9
2019-02-11T02:32:23.762Z,23.9
2019-02-11T02:33:26.183Z,23.9
2019-02-11T02:34:28.349Z,23.9
2019-02-11T02:35:30.473Z,23.9
2019-02-11T02:36:32.897Z,23.9
2019-02-11T02:37:35.023Z,23.9
2019-02-11T02:38:37.179Z,23.9
2019-02-11T02:39:39.320Z,23.9
2019-02-11T02:40:41.759Z,23.9
2019-02-11T02:41:43.910Z,23.9
2019-02-11T02:42:46.065Z,24
2019-02-11T02:44:53.209Z,24
2019-02-11T02:45:55.360Z,24
2019-02-11T02:46:57.792Z,24
2019-02-11T02:47:59.658Z,24
2019-02-11T02:49:01.524Z,24
2019-02-11T02:50:03.951Z,24
2019-02-11T02:51:06.382Z,24
2019-02-11T02:52:08.820Z,24
2019-02-11T02:53:10.965Z,24
2019-02-11T02:54:13.382Z,24
2019-02-11T02:55:15.816Z,24
2019-02-11T02:56:18.235Z,24
2019-02-11T02:57:20.413Z,24
2019-02-11T02:58:22.844Z,24
2019-02-11T02:59:25.004Z,24
2019-02-11T03:00:27.143Z,24
2019-02-11T03:01:29.272Z,24
2019-02-11T03:02:31.526Z,24
2019-02-11T03:03:33.645Z,24
2019-02-11T03:04:35.807Z,24
2019-02-11T03:05:38.233Z,24
2019-02-11T03:06:40.666Z,24
2019-02-11T03:07:43.091Z,24
2019-02-11T03:08:44.737Z,24
2019-02-11T03:09:46.921Z,24
2019-02-11T03:10:49.348Z,24
2019-02-11T03:11:51.771Z,24
2019-02-11T03:12:53.851Z,24
2019-02-11T03:15:00.980Z,24
2019-02-11T03:16:03.403Z,24
2019-02-11T03:17:05.831Z,24
2019-02-11T03:18:07.683Z,24
2019-02-11T03:19:10.127Z,24
2019-02-11T03:20:12.555Z,24
2019-02-11T03:21:14.983Z,24
2019-02-11T03:22:16.850Z,24
2019-02-11T03:23:19.004Z,24
2019-02-11T03:24:20.863Z,24
2019-02-11T03:25:23.304Z,24
2019-02-11T03:26:25.743Z,24
2019-02-11T03:27:28.169Z,24
2019-02-11T03:28:30.303Z,24
2019-02-11T03:29:32.735Z,24
2019-02-11T03:30:35.154Z,24
2019-02-11T03:31:37.627Z,24
2019-02-11T03:32:40.100Z,24
2019-02-11T03:33:42.265Z,24
2019-02-11T03:34:44.433Z,24
2019-02-11T03:35:46.587Z,24
2019-02-11T03:36:49.025Z,24
2019-02-11T03:37:51.454Z,24
2019-02-11T03:38:53.613Z,24
2019-02-11T03:39:56.041Z,24
2019-02-11T03:40:58.203Z,24
2019-02-11T03:42:00.621Z,24
2019-02-11T03:43:03.041Z,24
2019-02-11T03:44:14.425Z,24
2019-02-11T03:45:11.123Z,24
2019-02-11T03:46:13.557Z,24
2019-02-11T03:47:15.729Z,24
2019-02-11T03:48:18.162Z,24
2019-02-11T03:49:20.584Z,24
2019-02-11T03:50:23.008Z,24
2019-02-11T03:51:25.174Z,24
2019-02-11T03:52:27.057Z,24
2019-02-11T03:53:29.211Z,24
2019-02-11T03:54:31.632Z,24
2019-02-11T03:55:33.791Z,24
2019-02-11T03:56:36.219Z,24
2019-02-11T03:57:38.633Z,24
2019-02-11T03:58:40.797Z,24
2019-02-11T03:59:43.223Z,24
2019-02-11T04:00:45.660Z,24
2019-02-11T04:01:48.119Z,24
2019-02-11T04:02:50.246Z,24
2019-02-11T04:03:52.684Z,24
2019-02-11T04:04:54.580Z,24
2019-02-11T04:05:57.057Z,24
2019-02-11T04:06:59.475Z,24
2019-02-11T04:08:01.355Z,23.9
2019-02-11T04:09:03.238Z,23.9
2019-02-11T04:10:05.662Z,23.9
2019-02-11T04:11:07.820Z,23.8
2019-02-11T04:12:09.692Z,23.8
2019-02-11T04:13:11.840Z,23.8
2019-02-11T04:14:13.989Z,23.8
2019-02-11T04:15:20.616Z,23.7
2019-02-11T04:16:22.769Z,23.7
2019-02-11T04:17:24.895Z,23.7
2019-02-11T04:18:27.049Z,23.7
2019-02-11T04:19:29.549Z,23.6
2019-02-11T04:20:31.699Z,23.6
2019-02-11T04:21:34.138Z,23.6
2019-02-11T04:22:36.569Z,23.6
2019-02-11T04:23:39.012Z,23.5
2019-02-11T04:24:41.163Z,23.5
2019-02-11T04:25:43.312Z,23.5
2019-02-11T04:26:45.743Z,23.5
2019-02-11T04:27:47.612Z,23.5
2019-02-11T04:28:49.490Z,23.5
2019-02-11T04:29:51.651Z,23.5
2019-02-11T04:30:54.072Z,23.4
2019-02-11T04:31:56.642Z,23.4
2019-02-11T04:32:59.090Z,23.4
2019-02-11T04:34:01.546Z,23.4
2019-02-11T04:35:03.702Z,23.4
2019-02-11T04:36:06.143Z,23.4
2019-02-11T04:37:08.319Z,23.4
2019-02-11T04:38:10.473Z,23.4
2019-02-11T04:39:12.716Z,23.4
2019-02-11T04:40:14.868Z,23.4
2019-02-11T04:41:17.312Z,23.4
2019-02-11T04:42:19.203Z,23.4
2019-02-11T04:43:21.623Z,23.4
2019-02-11T04:44:33.546Z,23.3
2019-02-11T04:45:29.733Z,23.3
2019-02-11T04:46:32.176Z,23.3
2019-02-11T04:47:34.060Z,23.3
2019-02-11T04:48:36.499Z,23.3
2019-02-11T04:49:38.965Z,23.3
2019-02-11T04:50:41.418Z,23.3
2019-02-11T04:51:43.603Z,23.3
2019-02-11T04:52:45.221Z,23.3
2019-02-11T04:53:47.711Z,23.3
2019-02-11T04:54:49.875Z,23.3
2019-02-11T04:55:52.323Z,23.3
2019-02-11T04:56:54.764Z,23.3
2019-02-11T04:57:56.907Z,23.3
2019-02-11T04:58:59.346Z,23.3
2019-02-11T05:00:01.585Z,23.3
2019-02-11T05:01:04.053Z,23.3
2019-02-11T05:02:06.223Z,23.3
2019-02-11T05:03:08.667Z,23.3
2019-02-11T05:04:11.104Z,23.3
2019-02-11T05:05:13.269Z,23.3
2019-02-11T05:06:15.707Z,23.3
2019-02-11T05:07:17.887Z,23.3
2019-02-11T05:08:20.050Z,23.3
2019-02-11T05:09:22.196Z,23.2
2019-02-11T05:10:24.634Z,23.2
2019-02-11T05:11:27.076Z,23.2
2019-02-11T05:12:29.495Z,23.2
2019-02-11T05:13:31.934Z,23.2
2019-02-11T05:15:39.609Z,23.2
2019-02-11T05:16:42.049Z,23.2
2019-02-11T05:17:44.198Z,23.2
2019-02-11T05:18:46.620Z,23.2
2019-02-11T05:19:49.046Z,23.2
2019-02-11T05:20:51.215Z,23.2
2019-02-11T05:21:53.411Z,23.2
2019-02-11T05:22:55.889Z,23.2
2019-02-11T05:23:58.011Z,23.2
2019-02-11T05:25:00.454Z,23.2
2019-02-11T05:26:02.326Z,23.2
2019-02-11T05:27:04.507Z,23.2
2019-02-11T05:28:06.969Z,23.2
2019-02-11T05:29:09.406Z,23.2
2019-02-11T05:30:11.607Z,23.2
2019-02-11T05:31:13.470Z,23.2
2019-02-11T05:32:15.375Z,23.2
2019-02-11T05:33:17.833Z,23.2
2019-02-11T05:34:20.446Z,23.2
2019-02-11T05:35:22.585Z,23.2
2019-02-11T05:36:25.015Z,23.2
2019-02-11T05:37:27.433Z,23.2
2019-02-11T05:38:29.584Z,23.1
2019-02-11T05:39:31.178Z,23.2
2019-02-11T05:40:33.597Z,23.1
2019-02-11T05:41:36.020Z,23.1
2019-02-11T05:42:37.873Z,23.1
2019-02-11T05:43:40.306Z,23.1
2019-02-11T05:44:42.763Z,23.1
2019-02-11T05:45:49.202Z,23.1
2019-02-11T05:46:51.669Z,23.1
2019-02-11T05:47:53.798Z,23.1
2019-02-11T05:48:55.960Z,23.1
2019-02-11T05:49:58.393Z,23.1
2019-02-11T05:51:00.816Z,23.1
2019-02-11T05:52:03.241Z,23.1
2019-02-11T05:53:05.664Z,23.1
2019-02-11T05:54:07.821Z,23.1
2019-02-11T05:55:10.242Z,23.1
2019-02-11T05:56:12.391Z,23.1
2019-02-11T05:57:14.809Z,23.1
2019-02-11T05:58:17.231Z,23.1
2019-02-11T05:59:19.684Z,23.1
2019-02-11T06:00:22.104Z,23.1
2019-02-11T06:01:24.522Z,23.1
2019-02-11T06:02:26.953Z,23.1
2019-02-11T06:03:29.395Z,23.1
2019-02-11T06:04:31.842Z,23.1
2019-02-11T06:05:33.996Z,23.1
2019-02-11T06:06:36.152Z,23.1
2019-02-11T06:07:38.284Z,23.1
2019-02-11T06:08:40.719Z,23.1
2019-02-11T06:09:42.855Z,23.1
2019-02-11T06:10:45.278Z,23.1
2019-02-11T06:11:47.724Z,23.1
2019-02-11T06:12:50.155Z,23.1
2019-02-11T06:13:52.593Z,23.1
2019-02-11T06:15:59.744Z,23.1
2019-02-11T06:17:01.908Z,23.1
2019-02-11T06:18:03.799Z,23.1
2019-02-11T06:19:05.434Z,23.1
2019-02-11T06:20:07.871Z,23.1
2019-02-11T06:21:10.035Z,23.1
2019-02-11T06:22:12.202Z,23.1
2019-02-11T06:23:14.632Z,23.1
2019-02-11T06:24:17.050Z,23.1
2019-02-11T06:25:19.467Z,23.1
2019-02-11T06:26:21.893Z,23.1
2019-02-11T06:27:24.338Z,23.1
2019-02-11T06:28:26.486Z,23.1
2019-02-11T06:29:28.375Z,23.1
2019-02-11T06:30:30.522Z,23.1
2019-02-11T06:31:32.962Z,23.1
2019-02-11T06:32:35.149Z,23.1
2019-02-11T06:33:38.596Z,23.1
2019-02-11T06:34:40.874Z,23.1
2019-02-11T06:35:43.301Z,23.1
2019-02-11T06:36:45.718Z,23.1
2019-02-11T06:37:47.869Z,23.1
2019-02-11T06:38:49.720Z,23.1
2019-02-11T06:39:52.150Z,23.1
2019-02-11T06:40:54.297Z,23.1
2019-02-11T06:41:56.734Z,23.1
2019-02-11T06:42:59.162Z,23.1
2019-02-11T06:44:01.036Z,23.1
2019-02-11T06:45:03.208Z,23.1
2019-02-11T06:46:09.352Z,23.1
2019-02-11T06:47:11.542Z,23.1
2019-02-11T06:48:13.962Z,23.1
2019-02-11T06:49:16.391Z,23.1
2019-02-11T06:50:18.826Z,23.1
2019-02-11T06:51:20.974Z,23.1
2019-02-11T06:52:23.420Z,23.1
2019-02-11T06:53:25.569Z,23.1
2019-02-11T06:54:27.714Z,23.1
2019-02-11T06:55:29.862Z,23.1
2019-02-11T06:56:32.020Z,23.1
2019-02-11T06:57:33.892Z,23
2019-02-11T06:58:36.324Z,23
2019-02-11T06:59:38.764Z,23
2019-02-11T07:00:41.198Z,23.1
2019-02-11T07:01:43.634Z,23
2019-02-11T07:02:46.061Z,23
2019-02-11T07:03:48.240Z,23
2019-02-11T07:04:50.655Z,23
2019-02-11T07:05:53.085Z,23
2019-02-11T07:06:55.227Z,23
2019-02-11T07:07:57.664Z,23
2019-02-11T07:08:59.832Z,23
2019-02-11T07:10:02.254Z,23
2019-02-11T07:11:04.686Z,23
2019-02-11T07:12:07.104Z,23
2019-02-11T07:13:09.539Z,23
2019-02-11T07:14:11.677Z,23
2019-02-11T07:16:18.810Z,23
2019-02-11T07:17:20.988Z,23
2019-02-11T07:18:22.867Z,23
2019-02-11T07:19:25.292Z,23
2019-02-11T07:20:27.729Z,23
2019-02-11T07:21:30.154Z,23
2019-02-11T07:22:32.306Z,23
2019-02-11T07:23:34.725Z,23
2019-02-11T07:24:37.149Z,23
2019-02-11T07:25:39.322Z,23
2019-02-11T07:26:41.748Z,23
2019-02-11T07:27:43.921Z,23
2019-02-11T07:28:46.324Z,23
2019-02-11T07:29:48.484Z,23
2019-02-11T07:30:50.921Z,23
2019-02-11T07:31:52.805Z,23
2019-02-11T07:32:54.705Z,23
2019-02-11T07:33:56.856Z,23
2019-02-11T07:34:59.296Z,23
2019-02-11T07:36:02.281Z,23
2019-02-11T07:37:04.888Z,23
2019-02-11T07:38:07.312Z,23
2019-02-11T07:39:08.937Z,23
2019-02-11T07:40:11.356Z,23
2019-02-11T07:41:13.788Z,23
2019-02-11T07:42:16.203Z,23
2019-02-11T07:43:18.622Z,23
2019-02-11T07:44:21.061Z,23
2019-02-11T07:46:28.188Z,23
2019-02-11T07:47:30.611Z,23
2019-02-11T07:48:33.030Z,23
2019-02-11T07:49:34.917Z,23
2019-02-11T07:50:37.134Z,23
2019-02-11T07:52:44.550Z,23
2019-02-11T07:53:46.414Z,23
2019-02-11T07:54:48.317Z,23
2019-02-11T07:55:50.470Z,23
2019-02-11T07:56:52.624Z,23
2019-02-11T07:57:54.802Z,23
2019-02-11T07:58:57.248Z,23
2019-02-11T07:59:59.679Z,23
2019-02-11T08:01:02.270Z,23
2019-02-11T08:02:04.720Z,23
2019-02-11T08:03:06.584Z,23
2019-02-11T08:04:09.017Z,23
2019-02-11T08:05:11.440Z,23
2019-02-11T08:06:13.595Z,23
2019-02-11T08:07:15.811Z,23
2019-02-11T08:08:18.223Z,23
2019-02-11T08:09:20.652Z,23
2019-02-11T08:10:22.814Z,23
2019-02-11T08:11:24.969Z,23
2019-02-11T08:12:26.851Z,23
2019-02-11T08:13:29.018Z,23
2019-02-11T08:14:31.165Z,23
2019-02-11T08:16:38.301Z,23
2019-02-11T08:17:40.772Z,23
2019-02-11T08:18:43.205Z,23
2019-02-11T08:19:45.365Z,23
2019-02-11T08:20:47.789Z,23
2019-02-11T08:21:49.929Z,23
2019-02-11T08:22:51.555Z,23
2019-02-11T08:23:53.999Z,23
2019-02-11T08:24:56.425Z,23
2019-02-11T08:25:58.872Z,23
2019-02-11T08:27:01.046Z,23
2019-02-11T08:28:03.485Z,23
2019-02-11T08:29:05.914Z,23
2019-02-11T08:30:08.345Z,23
2019-02-11T08:31:10.504Z,23
2019-02-11T08:32:12.657Z,23
2019-02-11T08:33:15.086Z,23
2019-02-11T08:34:17.526Z,23
2019-02-11T08:35:19.947Z,23
2019-02-11T08:36:22.374Z,23
2019-02-11T08:37:23.993Z,23
2019-02-11T08:38:25.607Z,23
2019-02-11T08:39:27.779Z,23
2019-02-11T08:40:29.677Z,23
2019-02-11T08:41:32.103Z,23
2019-02-11T08:42:34.265Z,23
2019-02-11T08:43:36.426Z,23
2019-02-11T08:44:38.301Z,23
2019-02-11T08:46:45.433Z,23
2019-02-11T08:47:47.593Z,23
2019-02-11T08:48:50.136Z,23
2019-02-11T08:49:52.425Z,23
2019-02-11T08:50:54.561Z,23
2019-02-11T08:51:56.729Z,23
2019-02-11T08:52:58.619Z,23
2019-02-11T08:54:00.771Z,23
2019-02-11T08:55:02.933Z,23
2019-02-11T08:56:04.819Z,23
2019-02-11T08:57:07.240Z,23
2019-02-11T08:58:09.682Z,23
2019-02-11T08:59:11.812Z,23
2019-02-11T09:00:14.237Z,23
2019-02-11T09:01:16.665Z,23
2019-02-11T09:02:18.825Z,23
2019-02-11T09:03:20.997Z,23
2019-02-11T09:04:23.421Z,23
2019-02-11T09:05:25.287Z,23
2019-02-11T09:06:27.419Z,23
2019-02-11T09:07:29.323Z,23
2019-02-11T09:08:31.475Z,23
2019-02-11T09:09:33.903Z,23
2019-02-11T09:10:36.343Z,23
2019-02-11T09:11:38.776Z,23
2019-02-11T09:12:41.203Z,23
2019-02-11T09:13:43.633Z,23
2019-02-11T09:14:45.802Z,23
2019-02-11T09:16:52.948Z,23
2019-02-11T09:17:55.119Z,23
2019-02-11T09:18:57.281Z,23
2019-02-11T09:19:59.435Z,23
2019-02-11T09:21:01.917Z,23
2019-02-11T09:23:09.357Z,23
2019-02-11T09:24:11.228Z,23
2019-02-11T09:25:13.717Z,23
2019-02-11T09:26:16.144Z,23
2019-02-11T09:27:18.576Z,23
2019-02-11T09:28:21.004Z,23
2019-02-11T09:29:22.878Z,23
2019-02-11T09:30:24.741Z,23
2019-02-11T09:31:27.185Z,23
2019-02-11T09:32:29.611Z,23
2019-02-11T09:33:31.758Z,23
2019-02-11T09:34:33.990Z,23
2019-02-11T09:35:36.407Z,22.9
2019-02-11T09:36:38.556Z,23
2019-02-11T09:37:40.976Z,23
2019-02-11T09:38:43.249Z,23
2019-02-11T09:39:45.797Z,23
2019-02-11T09:40:48.014Z,22.9
2019-02-11T09:41:50.177Z,23
2019-02-11T09:42:52.617Z,23
2019-02-11T09:43:54.770Z,22.9
2019-02-11T09:44:57.207Z,22.9
2019-02-11T09:47:04.614Z,23
2019-02-11T09:48:06.781Z,22.9
2019-02-11T09:49:09.216Z,22.9
2019-02-11T09:50:11.076Z,23
2019-02-11T09:51:13.509Z,22.9
2019-02-11T09:52:15.637Z,22.9
2019-02-11T09:53:17.806Z,22.9
2019-02-11T09:54:20.242Z,22.9
2019-02-11T09:55:22.396Z,22.9
2019-02-11T09:56:24.536Z,23
2019-02-11T09:57:26.129Z,22.9
2019-02-11T09:58:28.045Z,23
2019-02-11T09:59:30.211Z,22.9
2019-02-11T10:00:32.655Z,22.9
2019-02-11T10:01:35.112Z,22.9
2019-02-11T10:02:37.269Z,22.9
2019-02-11T10:03:39.428Z,22.9
2019-02-11T10:04:41.307Z,22.9
2019-02-11T10:05:43.739Z,23
2019-02-11T10:06:45.881Z,23
2019-02-11T10:07:48.306Z,23
2019-02-11T10:08:50.750Z,22.9
2019-02-11T10:09:52.894Z,23
2019-02-11T10:10:55.342Z,23
2019-02-11T10:11:57.231Z,23
2019-02-11T10:12:59.663Z,23
2019-02-11T10:14:02.091Z,23
2019-02-11T10:15:04.526Z,23
2019-02-11T10:17:11.645Z,23
2019-02-11T10:18:14.072Z,23
2019-02-11T10:19:16.494Z,23
2019-02-11T10:20:18.916Z,23
2019-02-11T10:21:21.066Z,23
2019-02-11T10:22:23.485Z,23
2019-02-11T10:23:25.360Z,23
2019-02-11T10:24:27.790Z,23
2019-02-11T10:25:29.951Z,23
2019-02-11T10:26:31.850Z,23
2019-02-11T10:27:34.061Z,23
2019-02-11T10:28:36.226Z,23
2019-02-11T10:29:37.532Z,23
2019-02-11T10:30:40.015Z,23
2019-02-11T10:31:42.155Z,23
2019-02-11T10:32:44.345Z,23
2019-02-11T10:33:46.783Z,23
2019-02-11T10:34:49.211Z,22.9
2019-02-11T10:35:51.675Z,22.9
2019-02-11T10:36:54.108Z,22.9
2019-02-11T10:37:56.243Z,22.9
2019-02-11T10:38:58.411Z,22.9
2019-02-11T10:40:00.629Z,22.9
2019-02-11T10:41:02.795Z,22.9
2019-02-11T10:42:04.399Z,22.9
2019-02-11T10:43:06.565Z,22.9
2019-02-11T10:44:10.368Z,22.9
2019-02-11T10:45:12.255Z,22.9
2019-02-11T10:47:19.661Z,22.9
2019-02-11T10:48:22.096Z,22.9
2019-02-11T10:49:24.519Z,22.9
2019-02-11T10:50:26.941Z,22.9
2019-02-11T10:51:29.387Z,22.9
2019-02-11T10:52:31.829Z,22.9
2019-02-11T10:53:34.256Z,22.9
2019-02-11T10:54:36.681Z,22.9
2019-02-11T10:55:39.116Z,22.9
2019-02-11T10:56:41.597Z,22.9
2019-02-11T10:57:44.018Z,22.9
2019-02-11T10:58:46.204Z,22.9
2019-02-11T10:59:48.083Z,22.9
2019-02-11T11:00:50.245Z,22.9
2019-02-11T11:01:52.665Z,22.9
2019-02-11T11:02:55.114Z,22.9
2019-02-11T11:03:57.257Z,22.9
2019-02-11T11:04:59.407Z,22.9
2019-02-11T11:06:01.568Z,22.9
2019-02-11T11:07:03.994Z,22.9
2019-02-11T11:08:05.865Z,22.9
2019-02-11T11:09:07.735Z,22.9
2019-02-11T11:10:09.895Z,22.9
2019-02-11T11:11:12.058Z,22.9
2019-02-11T11:12:14.204Z,22.9
2019-02-11T11:13:16.647Z,22.9
2019-02-11T11:14:18.795Z,22.9
2019-02-11T11:15:21.220Z,22.9
2019-02-11T11:17:28.626Z,22.9
2019-02-11T11:18:30.790Z,22.9
2019-02-11T11:19:32.652Z,22.9
2019-02-11T11:20:35.088Z,22.9
2019-02-11T11:21:37.241Z,22.9
2019-02-11T11:22:41.228Z,22.9
2019-02-11T11:23:43.659Z,22.9
2019-02-11T11:24:45.794Z,22.9
2019-02-11T11:25:47.998Z,22.9
2019-02-11T11:26:49.895Z,22.9
2019-02-11T11:27:52.067Z,22.9
2019-02-11T11:28:54.212Z,22.9
2019-02-11T11:29:56.354Z,22.9
2019-02-11T11:30:57.933Z,22.9
2019-02-11T11:32:00.079Z,22.9
2019-02-11T11:33:02.501Z,22.9
2019-02-11T11:34:04.934Z,22.9
2019-02-11T11:35:06.818Z,22.9
2019-02-11T11:36:09.232Z,22.9
2019-02-11T11:37:13.371Z,22.9
2019-02-11T11:38:15.608Z,22.9
2019-02-11T11:39:17.470Z,22.9
2019-02-11T11:40:19.914Z,22.9
2019-02-11T11:41:22.069Z,22.9
2019-02-11T11:42:24.500Z,22.9
2019-02-11T11:43:26.946Z,22.9
2019-02-11T11:44:29.129Z,22.9
2019-02-11T11:45:31.274Z,22.9
2019-02-11T11:47:38.412Z,22.9
2019-02-11T11:48:40.554Z,22.9
2019-02-11T11:49:42.707Z,22.9
2019-02-11T11:50:44.854Z,22.9
2019-02-11T11:51:46.828Z,22.9
2019-02-11T11:52:49.261Z,22.9
2019-02-11T11:53:51.143Z,22.9
2019-02-11T11:54:53.589Z,22.9
2019-02-11T11:55:56.085Z,22.9
2019-02-11T11:57:00.465Z,22.9
2019-02-11T11:58:02.901Z,22.9
2019-02-11T11:59:05.073Z,22.9
2019-02-11T12:00:07.279Z,22.9
2019-02-11T12:01:09.715Z,22.9
2019-02-11T12:03:17.139Z,22.9
2019-02-11T12:04:19.412Z,22.9
2019-02-11T12:05:21.619Z,22.9
2019-02-11T12:07:29.049Z,22.9
2019-02-11T12:08:31.491Z,22.9
2019-02-11T12:09:34.058Z,22.9
2019-02-11T12:10:36.230Z,22.9
2019-02-11T12:11:38.663Z,22.9
2019-02-11T12:12:40.563Z,22.9
2019-02-11T12:13:43.020Z,22.9
2019-02-11T12:14:44.897Z,22.9
2019-02-11T12:15:47.386Z,22.9
2019-02-11T12:17:55.157Z,22.9
2019-02-11T12:18:57.114Z,22.9
2019-02-11T12:19:59.297Z,22.9
2019-02-11T12:21:01.778Z,22.9
2019-02-11T12:22:04.220Z,22.9
2019-02-11T12:23:06.381Z,22.9
2019-02-11T12:24:08.533Z,22.9
2019-02-11T12:25:10.750Z,22.9
2019-02-11T12:26:13.182Z,22.9
2019-02-11T12:27:15.640Z,22.9
2019-02-11T12:28:17.839Z,22.9
2019-02-11T12:29:19.990Z,22.9
2019-02-11T12:30:22.454Z,22.9
2019-02-11T12:31:24.561Z,22.9
2019-02-11T12:32:27.001Z,22.9
2019-02-11T12:33:29.176Z,22.8
2019-02-11T12:34:31.611Z,22.8
2019-02-11T12:35:34.077Z,22.9
2019-02-11T12:36:36.532Z,22.9
2019-02-11T12:37:38.988Z,22.8
2019-02-11T12:38:41.155Z,22.9
2019-02-11T12:39:43.599Z,22.8
2019-02-11T12:40:46.092Z,22.9
2019-02-11T12:41:48.591Z,22.8
2019-02-11T12:43:55.715Z,22.9
2019-02-11T12:44:58.164Z,22.9
2019-02-11T12:46:00.072Z,22.9
2019-02-11T12:48:07.500Z,22.9
2019-02-11T12:49:09.938Z,22.8
2019-02-11T12:50:12.387Z,22.8
2019-02-11T12:51:14.585Z,22.8
2019-02-11T12:52:16.484Z,22.8
2019-02-11T12:53:18.705Z,22.8
2019-02-11T12:54:21.304Z,22.9
2019-02-11T12:55:23.773Z,22.9
2019-02-11T12:56:26.394Z,22.8
2019-02-11T12:57:28.872Z,22.9
2019-02-11T12:58:31.298Z,22.8
2019-02-11T12:59:33.758Z,22.8
2019-02-11T13:00:36.182Z,22.8
2019-02-11T13:01:38.366Z,22.8
2019-02-11T13:02:40.794Z,22.9
2019-02-11T13:03:42.705Z,22.8
2019-02-11T13:04:45.187Z,22.8
2019-02-11T13:05:47.846Z,22.8
2019-02-11T13:06:49.735Z,22.8
2019-02-11T13:07:52.008Z,22.8
2019-02-11T13:08:54.263Z,22.8
2019-02-11T13:09:56.722Z,22.8
2019-02-11T13:10:59.167Z,22.8
2019-02-11T13:12:01.612Z,22.8
2019-02-11T13:14:08.769Z,22.8
2019-02-11T13:15:10.399Z,22.8
2019-02-11T13:16:12.375Z,22.8
2019-02-11T13:18:19.942Z,22.8
2019-02-11T13:19:22.714Z,22.8
2019-02-11T13:20:25.150Z,22.8
2019-02-11T13:21:27.312Z,22.8
2019-02-11T13:22:29.746Z,22.8
2019-02-11T13:23:32.183Z,22.8
2019-02-11T13:24:34.323Z,22.8
2019-02-11T13:25:36.851Z,22.8
2019-02-11T13:26:39.333Z,22.8
2019-02-11T13:27:41.486Z,22.8
2019-02-11T13:28:43.966Z,22.8
2019-02-11T13:29:46.411Z,22.8
2019-02-11T13:30:48.914Z,22.8
2019-02-11T13:31:51.088Z,22.8
2019-02-11T13:32:53.011Z,22.8
2019-02-11T13:33:55.457Z,22.8
2019-02-11T13:34:57.885Z,22.8
2019-02-11T13:36:00.088Z,22.8
2019-02-11T13:37:02.541Z,22.8
2019-02-11T13:38:05.007Z,22.8
2019-02-11T13:39:07.435Z,22.8
2019-02-11T13:40:09.336Z,22.8
2019-02-11T13:41:11.834Z,22.8
2019-02-11T13:42:14.267Z,22.8
2019-02-11T13:43:16.481Z,22.8
2019-02-11T13:44:18.907Z,22.8
2019-02-11T13:45:21.857Z,22.8
2019-02-11T13:46:24.182Z,22.8
2019-02-11T13:47:26.644Z,22.8
2019-02-11T13:48:32.723Z,22.8
2019-02-11T13:49:34.749Z,22.8
2019-02-11T13:50:37.228Z,22.8
2019-02-11T13:51:39.379Z,22.8
2019-02-11T13:52:41.819Z,22.8
2019-02-11T13:53:44.974Z,22.8
2019-02-11T13:54:47.412Z,22.8
2019-02-11T13:55:49.612Z,22.8
2019-02-11T13:56:52.163Z,22.8
2019-02-11T13:57:54.601Z,22.8
2019-02-11T13:58:56.892Z,22.8
2019-02-11T13:59:59.378Z,22.8
2019-02-11T14:01:02.163Z,22.8
2019-02-11T14:02:04.605Z,22.8
2019-02-11T14:03:06.903Z,22.8
2019-02-11T14:04:09.267Z,22.8
2019-02-11T14:05:11.454Z,22.8
2019-02-11T14:06:14.068Z,22.8
2019-02-11T14:07:16.529Z,22.8
2019-02-11T14:08:18.688Z,22.8
2019-02-11T14:09:20.997Z,22.8
2019-02-11T14:10:23.470Z,22.8
2019-02-11T14:11:25.112Z,22.8
2019-02-11T14:12:27.376Z,22.8
2019-02-11T14:13:29.546Z,22.8
2019-02-11T14:14:31.727Z,22.8
2019-02-11T14:15:33.915Z,22.8
2019-02-11T14:16:35.831Z,22.8
2019-02-11T14:17:38.255Z,22.8
2019-02-11T14:18:40.424Z,22.8
2019-02-11T14:19:42.858Z,22.8
2019-02-11T14:21:50.748Z,22.8
2019-02-11T14:22:53.197Z,22.8
2019-02-11T14:23:55.359Z,22.8
2019-02-11T14:24:57.553Z,22.8
2019-02-11T14:25:59.740Z,22.8
2019-02-11T14:27:01.942Z,22.8
2019-02-11T14:28:04.463Z,22.8
2019-02-11T14:29:06.622Z,22.8
2019-02-11T14:30:09.064Z,22.8
2019-02-11T14:31:11.536Z,22.8
2019-02-11T14:32:13.674Z,22.8
2019-02-11T14:33:15.843Z,22.8
2019-02-11T14:34:17.992Z,22.8
2019-02-11T14:35:20.688Z,22.8
2019-02-11T14:36:22.943Z,22.8
2019-02-11T14:37:25.389Z,22.8
2019-02-11T14:38:27.585Z,22.9